Time;durP1;ratioP1;P1;durP2;ratioP2;P2;SDS_P1;SDS_P2;PMS_P1;PMS_P2;Temp;Humidity;BMP_temperature;BMP_pressure;BME280_temperature;BME280_humidity;BME280_pressure;Samples;Min_cycle;Max_cycle;Signal;HPM_P1;HPM_P2
2022/10/26 00:00:08;;;;;;;11.77;7.50;;;;;;;;;;2073540;28;20042;-44
2022/10/26 00:01:08;;;;;;;;;;;;;;;;;;2073893;28;20487;-45
2022/10/26 00:02:10;;;;;;;10.82;7.55;;;;;;;;;;2073534;28;19972;-45
2022/10/26 00:03:11;;;;;;;12.98;7.97;;;;;;;;;;2073586;28;20057;-44
2022/10/26 00:04:12;;;;;;;12.37;8.73;;;;;;;;;;2073852;28;20046;-45
2022/10/26 00:05:13;;;;;;;14.13;8.70;;;;;;;;;;2073555;28;20104;-44
2022/10/26 00:06:15;;;;;;;13.90;8.67;;;;;;;;;;2073437;28;20111;-45
2022/10/26 00:07:16;;;;;;;13.38;8.25;;;;;;;;;;2073438;28;20046;-45
2022/10/26 00:08:18;;;;;;;14.83;8.97;;;;;;;;;;2073476;28;20487;-46
2022/10/26 00:09:18;;;;;;;11.85;7.68;;;;;;;;;;2073448;28;20059;-45
2022/10/26 00:10:20;;;;;;;13.53;8.40;;;;;;;;;;2073471;28;20056;-45
2022/10/26 00:11:21;;;;;;;13.38;8.10;;;;;;;;;;2073306;28;20287;-45
2022/10/26 00:12:23;;;;;;;13.77;8.55;;;;;;;;;;2073551;28;20053;-44
2022/10/26 00:13:24;;;;;;;14.55;8.45;;;;;;;;;;2073511;28;20057;-44
2022/10/26 00:14:26;;;;;;;14.68;9.23;;;;;;;;;;2073501;28;20049;-46
2022/10/26 00:15:27;;;;;;;11.65;7.90;;;;;;;;;;2073418;28;20050;-45
2022/10/26 00:16:28;;;;;;;12.13;8.05;;;;;;;;;;2073337;28;20046;-45
2022/10/26 00:17:29;;;;;;;11.82;7.78;;;;;;;;;;2073383;28;20505;-44
2022/10/26 00:18:30;;;;;;;12.03;8.50;;;;;;;;;;2073572;28;20052;-44
2022/10/26 00:19:32;;;;;;;13.85;8.82;;;;;;;;;;2073471;28;20064;-43
2022/10/26 00:20:33;;;;;;;14.38;7.82;;;;;;;;;;2073367;28;20046;-43
2022/10/26 00:21:34;;;;;;;13.93;7.50;;;;;;;;;;2073717;28;20103;-44
2022/10/26 00:22:35;;;;;;;13.27;8.87;;;;;;;;;;2073395;28;20458;-45
2022/10/26 00:23:36;;;;;;;12.70;8.57;;;;;;;;;;2073316;28;20049;-45
2022/10/26 00:24:37;;;;;;;13.53;7.90;;;;;;;;;;2073451;28;20088;-44
2022/10/26 00:25:38;;;;;;;14.43;8.48;;;;;;;;;;2073534;28;20053;-45
2022/10/26 00:26:39;;;;;;;10.93;8.10;;;;;;;;;;2073170;28;20042;-45
2022/10/26 00:27:40;;;;;;;14.05;9.25;;;;;;;;;;2073312;28;20057;-46
2022/10/26 00:28:41;;;;;;;13.35;8.25;;;;;;;;;;2073489;28;20144;-44
2022/10/26 00:29:43;;;;;;;16.05;8.55;;;;;;;;;;2073288;28;20050;-45
2022/10/26 00:30:44;;;;;;;15.85;10.30;;;;;;;;;;2073575;28;20053;-46
2022/10/26 00:31:45;;;;;;;13.77;9.57;;;;;;;;;;2073397;28;20496;-43
2022/10/26 00:32:46;;;;;;;17.27;10.43;;;;;;;;;;2073396;28;20177;-44
2022/10/26 00:33:50;;;;;;;17.58;10.80;;;;;;;;;;2073345;28;20046;-44
2022/10/26 00:34:52;;;;;;;13.00;9.00;;;;;;;;;;2073392;28;20088;-43
2022/10/26 00:35:53;;;;;;;17.98;10.73;;;;;;;;;;2072966;28;20042;-45
2022/10/26 00:36:54;;;;;;;16.55;11.25;;;;;;;;;;2072899;28;20141;-44
2022/10/26 00:37:55;;;;;;;15.60;10.90;;;;;;;;;;2073351;28;20053;-45
2022/10/26 00:38:56;;;;;;;22.17;11.63;;;;;;;;;;2073259;28;20563;-45
2022/10/26 00:39:57;;;;;;;19.85;11.43;;;;;;;;;;2073411;28;20052;-45
2022/10/26 00:40:58;;;;;;;21.03;11.50;;;;;;;;;;2073177;28;20128;-45
2022/10/26 00:41:59;;;;;;;21.65;12.93;;;;;;;;;;2073342;28;20049;-45
2022/10/26 00:43:00;;;;;;;21.70;12.60;;;;;;;;;;2072548;28;20050;-44
2022/10/26 00:44:16;;;;;;;22.50;13.48;;;;;;;;;;2072842;28;20050;-44
2022/10/26 00:45:19;;;;;;;20.58;13.38;;;;;;;;;;2072482;28;20415;-43
2022/10/26 00:46:21;;;;;;;19.92;12.55;;;;;;;;;;2073110;28;20050;-44
2022/10/26 00:47:26;;;;;;;20.55;12.95;;;;;;;;;;2073207;28;20100;-44
2022/10/26 00:48:28;;;;;;;21.75;12.95;;;;;;;;;;2073152;28;20061;-45
2022/10/26 00:49:30;;;;;;;20.48;12.48;;;;;;;;;;2073284;28;20049;-43
2022/10/26 00:50:32;;;;;;;21.58;13.48;;;;;;;;;;2073307;28;20515;-44
2022/10/26 00:51:36;;;;;;;19.88;12.85;;;;;;;;;;2072722;28;20407;-44
2022/10/26 00:52:37;;;;;;;20.70;12.93;;;;;;;;;;2073188;28;20050;-44
2022/10/26 00:53:38;;;;;;;22.27;12.60;;;;;;;;;;2073167;28;20057;-44
2022/10/26 00:54:39;;;;;;;22.35;13.13;;;;;;;;;;2073110;28;20546;-44
2022/10/26 00:55:46;;;;;;;23.55;13.18;;;;;;;;;;2073247;28;20049;-44
2022/10/26 00:56:48;;;;;;;19.73;12.88;;;;;;;;;;2073012;28;20057;-45
2022/10/26 00:57:51;;;;;;;22.05;14.27;;;;;;;;;;2073220;28;20050;-43
2022/10/26 00:58:53;;;;;;;21.52;12.65;;;;;;;;;;2073097;28;20042;-43
2022/10/26 00:59:55;;;;;;;19.55;12.85;;;;;;;;;;2073444;28;20053;-45
2022/10/26 01:00:57;;;;;;;21.15;12.15;;;;;;;;;;2073092;28;20053;-47
2022/10/26 01:01:58;;;;;;;19.10;10.38;;;;;;;;;;2073268;28;20057;-46
2022/10/26 01:03:00;;;;;;;17.20;11.07;;;;;;;;;;2073082;28;20088;-46
2022/10/26 01:04:01;;;;;;;20.85;12.20;;;;;;;;;;2073206;28;20054;-46
2022/10/26 01:05:04;;;;;;;16.13;10.98;;;;;;;;;;2073098;28;20091;-48
2022/10/26 01:06:05;;;;;;;16.75;10.35;;;;;;;;;;2073167;28;20050;-45
2022/10/26 01:07:07;;;;;;;16.70;9.80;;;;;;;;;;2073151;28;20057;-46
2022/10/26 01:08:08;;;;;;;19.95;10.43;;;;;;;;;;2073222;28;20119;-47
2022/10/26 01:09:10;;;;;;;16.23;10.98;;;;;;;;;;2073390;28;20053;-46
2022/10/26 01:10:12;;;;;;;14.98;9.45;;;;;;;;;;2073025;28;20557;-46
2022/10/26 01:11:14;;;;;;;16.40;9.55;;;;;;;;;;2073179;28;20060;-47
2022/10/26 01:12:15;;;;;;;15.50;10.23;;;;;;;;;;2072967;28;20050;-48
2022/10/26 01:13:16;;;;;;;15.77;10.23;;;;;;;;;;2073397;28;20129;-47
2022/10/26 01:14:18;;;;;;;17.45;9.63;;;;;;;;;;2072983;28;20487;-46
2022/10/26 01:15:20;;;;;;;15.05;10.43;;;;;;;;;;2073371;28;20127;-46
2022/10/26 01:16:35;;;;;;;15.30;9.23;;;;;;;;;;2072931;28;20069;-45
2022/10/26 01:17:48;;;;;;;14.63;9.48;;;;;;;;;;2073165;28;20050;-44
2022/10/26 01:18:53;;;;;;;14.57;9.98;;;;;;;;;;2073117;28;20046;-45
2022/10/26 01:20:12;;;;;;;15.50;9.88;;;;;;;;;;2072773;28;20100;-47
2022/10/26 01:21:23;;;;;;;16.88;10.00;;;;;;;;;;2072920;28;20514;-46
2022/10/26 01:22:26;;;;;;;18.85;9.52;;;;;;;;;;2073247;28;20042;-45
2022/10/26 01:23:31;;;;;;;14.90;8.98;;;;;;;;;;2073065;28;20251;-45
2022/10/26 01:24:39;;;;;;;13.82;9.07;;;;;;;;;;2073438;28;20046;-46
2022/10/26 01:25:51;;;;;;;14.43;9.35;;;;;;;;;;2072693;28;20100;-45
2022/10/26 01:27:00;;;;;;;14.15;9.38;;;;;;;;;;2072866;28;20073;-47
2022/10/26 01:28:05;;;;;;;13.82;9.43;;;;;;;;;;2073174;28;20053;-49
2022/10/26 01:29:17;;;;;;;17.63;9.43;;;;;;;;;;2073080;28;20045;-46
2022/10/26 01:30:22;;;;;;;14.50;8.73;;;;;;;;;;2072605;28;20044;-45
2022/10/26 01:31:27;;;;;;;15.48;9.32;;;;;;;;;;2072723;28;20100;-46
2022/10/26 01:32:31;;;;;;;14.43;9.20;;;;;;;;;;2073210;28;20069;-45
2022/10/26 01:33:34;;;;;;;15.93;8.85;;;;;;;;;;2072878;28;20054;-46
2022/10/26 01:34:38;;;;;;;16.25;10.10;;;;;;;;;;2072970;28;20046;-46
2022/10/26 01:35:41;;;;;;;15.25;8.75;;;;;;;;;;2073468;28;20052;-44
2022/10/26 01:36:44;;;;;;;16.63;9.40;;;;;;;;;;2072806;28;20407;-46
2022/10/26 01:37:46;;;;;;;14.43;8.95;;;;;;;;;;2072848;28;20510;-45
2022/10/26 01:38:53;;;;;;;12.80;8.13;;;;;;;;;;2072883;28;20046;-45
2022/10/26 01:39:57;;;;;;;14.48;8.77;;;;;;;;;;2073096;28;20511;-47
2022/10/26 01:41:01;;;;;;;14.77;8.80;;;;;;;;;;2073180;28;20050;-47
2022/10/26 01:42:03;;;;;;;14.45;8.70;;;;;;;;;;2073054;28;20597;-44
2022/10/26 01:43:06;;;;;;;14.23;9.10;;;;;;;;;;2072804;28;20553;-45
2022/10/26 01:44:10;;;;;;;15.30;9.20;;;;;;;;;;2073074;28;20046;-47
2022/10/26 01:45:11;;;;;;;14.18;7.85;;;;;;;;;;2073181;28;20050;-48
2022/10/26 01:46:13;;;;;;;14.13;8.85;;;;;;;;;;2072761;28;20541;-46
2022/10/26 01:47:16;;;;;;;14.32;8.77;;;;;;;;;;2072692;28;20054;-47
2022/10/26 01:48:19;;;;;;;14.02;9.05;;;;;;;;;;2072983;28;20057;-45
2022/10/26 01:49:22;;;;;;;16.10;9.48;;;;;;;;;;2072980;28;20057;-44
2022/10/26 01:50:23;;;;;;;14.48;9.02;;;;;;;;;;2072971;28;20100;-46
2022/10/26 01:51:25;;;;;;;13.60;8.63;;;;;;;;;;2068686;28;20182;-46
2022/10/26 01:52:27;;;;;;;16.70;9.38;;;;;;;;;;2064773;28;20050;-46
2022/10/26 01:53:27;;;;;;;16.63;8.82;;;;;;;;;;2070846;28;20042;-45
2022/10/26 01:54:29;;;;;;;14.37;9.07;;;;;;;;;;2072571;28;20072;-45
2022/10/26 01:55:30;;;;;;;;;;;;;;;;;;2073619;28;20128;-44
2022/10/26 01:56:33;;;;;;;13.95;8.93;;;;;;;;;;2072595;28;20285;-46
2022/10/26 01:57:36;;;;;;;16.00;9.77;;;;;;;;;;2072943;28;20046;-45
2022/10/26 01:58:48;;;;;;;15.40;8.63;;;;;;;;;;2072941;28;20173;-45
2022/10/26 01:59:56;;;;;;;16.58;9.45;;;;;;;;;;2072838;28;20050;-45
2022/10/26 02:01:01;;;;;;;17.17;9.65;;;;;;;;;;2072739;28;20407;-44
2022/10/26 02:02:18;;;;;;;14.35;9.20;;;;;;;;;;2072746;28;20041;-44
2022/10/26 02:03:23;;;;;;;14.60;9.02;;;;;;;;;;2072903;28;20073;-44
2022/10/26 02:04:31;;;;;;;13.85;8.93;;;;;;;;;;2072790;28;20053;-45
2022/10/26 02:05:41;;;;;;;14.02;8.60;;;;;;;;;;2072916;28;20058;-45
2022/10/26 02:06:46;;;;;;;16.58;9.00;;;;;;;;;;2072597;28;20510;-45
2022/10/26 02:07:52;;;;;;;16.27;9.80;;;;;;;;;;2072851;28;20054;-45
2022/10/26 02:08:56;;;;;;;15.40;9.32;;;;;;;;;;2072896;28;20050;-45
2022/10/26 02:09:59;;;;;;;13.88;9.32;;;;;;;;;;2072816;28;20061;-45
2022/10/26 02:11:08;;;;;;;15.30;9.80;;;;;;;;;;2072654;28;20042;-44
2022/10/26 02:12:13;;;;;;;15.85;10.00;;;;;;;;;;2072872;28;20057;-44
2022/10/26 02:13:16;;;;;;;17.05;10.00;;;;;;;;;;2072700;28;20052;-44
2022/10/26 02:14:21;;;;;;;16.77;10.18;;;;;;;;;;2072844;28;20124;-44
2022/10/26 02:15:24;;;;;;;16.70;10.95;;;;;;;;;;2072752;28;20069;-44
2022/10/26 02:16:31;;;;;;;15.43;8.85;;;;;;;;;;2072525;28;20491;-45
2022/10/26 02:17:34;;;;;;;15.52;9.75;;;;;;;;;;2072741;28;20407;-45
2022/10/26 02:18:37;;;;;;;16.23;9.40;;;;;;;;;;2072800;28;20046;-46
2022/10/26 02:19:42;;;;;;;15.27;9.68;;;;;;;;;;2072777;28;20053;-45
2022/10/26 02:20:46;;;;;;;21.33;9.98;;;;;;;;;;2072746;28;20054;-44
2022/10/26 02:21:49;;;;;;;17.27;10.13;;;;;;;;;;2072649;28;20042;-45
2022/10/26 02:22:52;;;;;;;19.65;10.05;;;;;;;;;;2072881;28;20050;-44
2022/10/26 02:23:54;;;;;;;15.82;9.23;;;;;;;;;;2072763;28;20168;-44
2022/10/26 02:24:56;;;;;;;17.85;10.30;;;;;;;;;;2072753;28;20111;-45
2022/10/26 02:25:58;;;;;;;16.67;10.30;;;;;;;;;;2072974;28;20045;-47
2022/10/26 02:27:00;;;;;;;19.27;9.98;;;;;;;;;;2072813;28;20042;-46
2022/10/26 02:28:05;;;;;;;22.75;9.95;;;;;;;;;;2073077;28;20056;-46
2022/10/26 02:29:08;;;;;;;16.88;9.60;;;;;;;;;;2072571;28;20500;-46
2022/10/26 02:30:10;;;;;;;17.23;10.00;;;;;;;;;;2072603;28;20049;-47
2022/10/26 02:31:13;;;;;;;15.40;9.57;;;;;;;;;;2072601;28;20053;-46
2022/10/26 02:32:14;;;;;;;17.38;10.80;;;;;;;;;;2072773;28;20065;-47
2022/10/26 02:33:18;;;;;;;18.20;10.48;;;;;;;;;;2072572;28;20530;-46
2022/10/26 02:34:20;;;;;;;14.38;8.75;;;;;;;;;;2072588;28;20054;-46
2022/10/26 02:35:24;;;;;;;23.02;9.48;;;;;;;;;;2072593;28;20061;-46
2022/10/26 02:36:27;;;;;;;16.60;9.85;;;;;;;;;;2072057;28;20510;-46
2022/10/26 02:37:29;;;;;;;15.45;9.90;;;;;;;;;;2072539;28;20463;-47
2022/10/26 02:38:31;;;;;;;16.35;9.85;;;;;;;;;;2072762;28;20479;-45
2022/10/26 02:39:33;;;;;;;16.02;8.85;;;;;;;;;;2072583;28;20411;-44
2022/10/26 02:40:35;;;;;;;14.23;9.30;;;;;;;;;;2072764;28;20048;-44
2022/10/26 02:41:37;;;;;;;17.10;9.90;;;;;;;;;;2072622;28;20046;-44
2022/10/26 02:42:40;;;;;;;16.35;10.10;;;;;;;;;;2072527;28;20049;-44
2022/10/26 02:43:45;;;;;;;15.75;8.95;;;;;;;;;;2072639;28;20065;-46
2022/10/26 02:44:47;;;;;;;17.33;9.90;;;;;;;;;;2072647;28;20133;-46
2022/10/26 02:45:51;;;;;;;17.95;9.82;;;;;;;;;;2073029;28;20049;-46
2022/10/26 02:46:52;;;;;;;16.60;9.32;;;;;;;;;;2072647;28;20045;-46
2022/10/26 02:47:54;;;;;;;19.70;10.20;;;;;;;;;;2072699;28;20046;-46
2022/10/26 02:48:55;;;;;;;19.55;9.68;;;;;;;;;;2072615;28;20050;-45
2022/10/26 02:49:57;;;;;;;18.20;10.05;;;;;;;;;;2072908;28;20046;-46
2022/10/26 02:50:59;;;;;;;17.58;9.75;;;;;;;;;;2071864;28;20046;-46
2022/10/26 02:52:03;;;;;;;18.02;10.30;;;;;;;;;;2064417;28;20096;-46
2022/10/26 02:53:09;;;;;;;16.55;9.27;;;;;;;;;;2066013;28;20057;-46
2022/10/26 02:54:13;;;;;;;16.33;9.25;;;;;;;;;;2072663;28;20045;-47
2022/10/26 02:55:17;;;;;;;14.90;9.05;;;;;;;;;;2072648;28;20049;-47
2022/10/26 02:56:21;;;;;;;17.63;10.38;;;;;;;;;;2072531;28;20101;-46
2022/10/26 02:57:24;;;;;;;17.13;9.52;;;;;;;;;;2072780;28;20108;-44
2022/10/26 02:58:27;;;;;;;17.52;9.68;;;;;;;;;;2072446;28;20532;-44
2022/10/26 02:59:33;;;;;;;20.50;10.25;;;;;;;;;;2072802;28;20050;-44
2022/10/26 03:00:34;;;;;;;17.80;9.40;;;;;;;;;;2072507;28;20049;-45
2022/10/26 03:01:35;;;;;;;18.90;10.68;;;;;;;;;;2072617;28;20133;-44
2022/10/26 03:02:37;;;;;;;16.83;9.32;;;;;;;;;;2072384;28;20459;-44
2022/10/26 03:03:37;;;;;;;18.15;9.70;;;;;;;;;;2072636;28;20050;-44
2022/10/26 03:04:39;;;;;;;15.17;9.20;;;;;;;;;;2072566;28;20050;-44
2022/10/26 03:05:40;;;;;;;;;;;;;;;;;;2073483;28;20516;-46
2022/10/26 03:06:41;;;;;;;15.40;8.98;;;;;;;;;;2074001;28;19925;-44
2022/10/26 03:07:43;;;;;;;13.95;8.75;;;;;;;;;;2073804;28;20057;-44
2022/10/26 03:08:44;;;;;;;18.02;9.60;;;;;;;;;;2073924;28;20046;-44
2022/10/26 03:09:45;;;;;;;18.02;9.98;;;;;;;;;;2074001;28;20407;-45
2022/10/26 03:10:46;;;;;;;17.53;9.20;;;;;;;;;;2073958;28;20153;-45
2022/10/26 03:11:47;;;;;;;16.70;9.27;;;;;;;;;;2073710;28;20046;-44
2022/10/26 03:12:48;;;;;;;18.23;9.65;;;;;;;;;;2073943;28;20046;-44
2022/10/26 03:13:49;;;;;;;22.75;10.25;;;;;;;;;;2073839;28;20046;-45
2022/10/26 03:14:50;;;;;;;17.93;9.70;;;;;;;;;;2073959;28;20045;-44
2022/10/26 03:15:54;;;;;;;16.45;10.40;;;;;;;;;;2073743;28;20084;-45
2022/10/26 03:16:55;;;;;;;21.77;10.23;;;;;;;;;;2073660;28;20510;-44
2022/10/26 03:17:56;;;;;;;17.63;9.82;;;;;;;;;;2073811;28;20142;-45
2022/10/26 03:18:57;;;;;;;15.80;8.88;;;;;;;;;;2073932;28;20049;-44
2022/10/26 03:19:59;;;;;;;17.55;9.88;;;;;;;;;;2073778;28;20435;-44
2022/10/26 03:21:00;;;;;;;16.33;9.32;;;;;;;;;;2073824;28;20046;-45
2022/10/26 03:22:01;;;;;;;15.90;9.13;;;;;;;;;;2073795;28;20557;-44
2022/10/26 03:23:02;;;;;;;14.00;9.03;;;;;;;;;;2073642;28;20054;-44
2022/10/26 03:24:03;;;;;;;18.70;9.88;;;;;;;;;;2073743;28;20058;-44
2022/10/26 03:25:05;;;;;;;19.05;9.75;;;;;;;;;;2074193;28;20049;-45
2022/10/26 03:26:05;;;;;;;;;;;;;;;;;;2074207;28;20076;-46
2022/10/26 03:27:07;;;;;;;16.60;9.88;;;;;;;;;;2073734;28;20394;-46
2022/10/26 03:28:08;;;;;;;19.27;9.60;;;;;;;;;;2073955;28;20455;-45
2022/10/26 03:29:09;;;;;;;16.13;10.10;;;;;;;;;;2073824;28;20054;-44
2022/10/26 03:30:10;;;;;;;18.40;10.02;;;;;;;;;;2073864;28;20041;-44
2022/10/26 03:31:11;;;;;;;19.40;9.77;;;;;;;;;;2073793;28;20475;-45
2022/10/26 03:32:12;;;;;;;15.85;9.75;;;;;;;;;;2073638;28;20284;-45
2022/10/26 03:33:13;;;;;;;17.42;10.38;;;;;;;;;;2073614;28;20060;-44
2022/10/26 03:34:14;;;;;;;21.05;9.13;;;;;;;;;;2073671;28;20515;-45
2022/10/26 03:35:16;;;;;;;14.57;8.30;;;;;;;;;;2073676;28;20056;-44
2022/10/26 03:36:17;;;;;;;16.35;8.57;;;;;;;;;;2073605;28;20057;-44
2022/10/26 03:37:18;;;;;;;17.25;8.65;;;;;;;;;;2073835;28;20057;-44
2022/10/26 03:38:19;;;;;;;15.87;8.30;;;;;;;;;;2073407;28;20037;-46
2022/10/26 03:39:20;;;;;;;13.40;7.60;;;;;;;;;;2073748;28;20048;-45
2022/10/26 03:40:21;;;;;;;16.40;8.33;;;;;;;;;;2073449;28;20064;-47
2022/10/26 03:41:22;;;;;;;15.85;8.18;;;;;;;;;;2073562;28;20408;-47
2022/10/26 03:42:23;;;;;;;14.70;8.47;;;;;;;;;;2073708;28;20074;-46
2022/10/26 03:43:24;;;;;;;15.05;7.45;;;;;;;;;;2073645;28;20050;-46
2022/10/26 03:44:25;;;;;;;16.70;8.48;;;;;;;;;;2073748;28;20100;-46
2022/10/26 03:45:26;;;;;;;17.33;8.45;;;;;;;;;;2073602;28;20046;-46
2022/10/26 03:46:27;;;;;;;17.17;8.48;;;;;;;;;;2073695;28;20100;-47
2022/10/26 03:47:28;;;;;;;14.50;8.38;;;;;;;;;;2073609;28;20057;-47
2022/10/26 03:48:29;;;;;;;15.00;8.70;;;;;;;;;;2073937;28;20057;-45
2022/10/26 03:49:30;;;;;;;19.55;8.98;;;;;;;;;;2073837;28;20046;-47
2022/10/26 03:50:32;;;;;;;13.20;7.63;;;;;;;;;;2073692;28;20056;-47
2022/10/26 03:51:33;;;;;;;18.02;7.97;;;;;;;;;;2067978;28;20093;-47
2022/10/26 03:52:34;;;;;;;14.05;7.72;;;;;;;;;;2065608;28;20051;-46
2022/10/26 03:53:35;;;;;;;17.47;8.53;;;;;;;;;;2065481;28;20451;-46
2022/10/26 03:54:36;;;;;;;16.42;8.13;;;;;;;;;;2065407;28;20042;-47
2022/10/26 03:55:38;;;;;;;18.23;8.10;;;;;;;;;;2065608;28;20046;-47
2022/10/26 03:56:38;;;;;;;17.92;8.52;;;;;;;;;;2065569;28;20092;-48
2022/10/26 03:57:40;;;;;;;16.57;8.40;;;;;;;;;;2065591;28;20046;-47
2022/10/26 03:58:41;;;;;;;14.68;8.00;;;;;;;;;;2065929;28;20050;-45
2022/10/26 03:59:43;;;;;;;15.13;8.02;;;;;;;;;;2065506;28;20054;-44
2022/10/26 04:00:43;;;;;;;14.98;8.30;;;;;;;;;;2065479;28;20046;-45
2022/10/26 04:01:45;;;;;;;17.05;7.90;;;;;;;;;;2065289;28;20046;-44
2022/10/26 04:02:52;;;;;;;16.73;8.40;;;;;;;;;;2065364;28;20054;-45
2022/10/26 04:03:53;;;;;;;17.58;8.07;;;;;;;;;;2065582;28;20056;-46
2022/10/26 04:04:54;;;;;;;16.52;8.00;;;;;;;;;;2065510;28;20129;-46
2022/10/26 04:05:59;;;;;;;15.40;8.37;;;;;;;;;;2065344;28;20042;-44
2022/10/26 04:06:59;;;;;;;14.15;8.13;;;;;;;;;;2065534;28;20305;-44
2022/10/26 04:08:01;;;;;;;13.60;7.83;;;;;;;;;;2065382;28;20054;-44
2022/10/26 04:09:02;;;;;;;;;;;;;;;;;;2065807;28;20054;-44
2022/10/26 04:10:04;;;;;;;13.48;7.53;;;;;;;;;;2065335;28;19932;-44
2022/10/26 04:11:05;;;;;;;14.75;7.93;;;;;;;;;;2065344;28;20101;-44
2022/10/26 04:12:06;;;;;;;13.57;7.28;;;;;;;;;;2065396;28;20050;-44
2022/10/26 04:13:08;;;;;;;14.30;8.32;;;;;;;;;;2065293;28;20495;-44
2022/10/26 04:14:09;;;;;;;13.77;7.93;;;;;;;;;;2065517;28;20057;-47
2022/10/26 04:15:10;;;;;;;14.25;7.47;;;;;;;;;;2065304;28;20050;-46
2022/10/26 04:16:11;;;;;;;13.93;7.57;;;;;;;;;;2065205;28;20062;-46
2022/10/26 04:17:12;;;;;;;17.35;8.45;;;;;;;;;;2065139;28;20064;-48
2022/10/26 04:18:13;;;;;;;14.40;8.48;;;;;;;;;;2065404;28;20054;-47
2022/10/26 04:19:14;;;;;;;14.05;7.75;;;;;;;;;;2065255;28;20050;-46
2022/10/26 04:20:15;;;;;;;12.77;7.27;;;;;;;;;;2065433;28;20050;-48
2022/10/26 04:21:17;;;;;;;13.63;7.53;;;;;;;;;;2065462;28;20054;-47
2022/10/26 04:22:18;;;;;;;14.07;7.13;;;;;;;;;;2065471;28;20054;-46
2022/10/26 04:23:19;;;;;;;15.73;7.90;;;;;;;;;;2065459;28;20529;-44
2022/10/26 04:24:20;;;;;;;12.70;7.53;;;;;;;;;;2065245;28;20510;-45
2022/10/26 04:25:21;;;;;;;12.90;7.33;;;;;;;;;;2065404;28;20057;-48
2022/10/26 04:26:22;;;;;;;14.13;7.57;;;;;;;;;;2065509;28;20051;-46
2022/10/26 04:27:23;;;;;;;14.98;7.72;;;;;;;;;;2065303;28;20104;-47
2022/10/26 04:28:25;;;;;;;14.07;8.17;;;;;;;;;;2065222;28;20076;-47
2022/10/26 04:29:25;;;;;;;14.57;8.18;;;;;;;;;;2070018;28;20567;-45
2022/10/26 04:30:27;;;;;;;12.45;7.35;;;;;;;;;;2073271;28;20100;-45
2022/10/26 04:31:28;;;;;;;14.43;7.47;;;;;;;;;;2073698;28;20415;-45
2022/10/26 04:32:29;;;;;;;13.50;8.13;;;;;;;;;;2073303;28;20046;-44
2022/10/26 04:33:30;;;;;;;16.23;7.07;;;;;;;;;;2073290;28;20053;-45
2022/10/26 04:34:31;;;;;;;11.65;7.10;;;;;;;;;;2074252;28;20058;-47
2022/10/26 04:35:33;;;;;;;15.15;8.18;;;;;;;;;;2073324;28;20060;-46
2022/10/26 04:36:36;;;;;;;14.38;7.80;;;;;;;;;;2067880;28;20042;-47
2022/10/26 04:37:37;;;;;;;;;;;;;;;;;;2065573;28;20050;-47
2022/10/26 04:38:38;;;;;;;14.05;7.90;;;;;;;;;;2065286;28;19937;-48
2022/10/26 04:39:39;;;;;;;15.20;8.02;;;;;;;;;;2065328;28;20043;-45
2022/10/26 04:40:40;;;;;;;13.07;7.43;;;;;;;;;;2072126;28;20042;-47
2022/10/26 04:41:41;;;;;;;15.60;7.32;;;;;;;;;;2073174;28;20311;-50
2022/10/26 04:42:43;;;;;;;15.73;8.13;;;;;;;;;;2073154;28;20388;-50
2022/10/26 04:43:44;;;;;;;13.35;7.80;;;;;;;;;;2073239;28;20392;-48
2022/10/26 04:44:45;;;;;;;11.90;7.40;;;;;;;;;;2073367;28;20061;-46
2022/10/26 04:45:46;;;;;;;15.23;7.88;;;;;;;;;;2073494;28;20053;-51
2022/10/26 04:46:47;;;;;;;16.45;8.55;;;;;;;;;;2073104;28;20053;-46
2022/10/26 04:47:58;;;;;;;14.05;7.78;;;;;;;;;;2073345;28;20072;-46
2022/10/26 04:48:59;;;;;;;16.02;8.50;;;;;;;;;;2072901;28;20506;-48
2022/10/26 04:50:00;;;;;;;17.10;7.30;;;;;;;;;;2073425;28;20042;-43
2022/10/26 04:51:01;;;;;;;12.43;8.03;;;;;;;;;;2072072;28;20084;-42
2022/10/26 04:52:04;;;;;;;13.27;7.60;;;;;;;;;;2065383;28;20062;-43
2022/10/26 04:53:05;;;;;;;14.40;7.68;;;;;;;;;;2065007;28;20407;-45
2022/10/26 04:54:06;;;;;;;16.17;7.68;;;;;;;;;;2065123;28;20046;-45
2022/10/26 04:55:07;;;;;;;18.10;8.40;;;;;;;;;;2068853;28;20388;-45
2022/10/26 04:56:08;;;;;;;17.42;8.52;;;;;;;;;;2073366;28;20045;-45
2022/10/26 04:57:10;;;;;;;16.90;8.93;;;;;;;;;;2073169;28;20514;-46
2022/10/26 04:58:11;;;;;;;16.08;8.15;;;;;;;;;;2073256;28;20294;-46
2022/10/26 04:59:12;;;;;;;13.38;7.93;;;;;;;;;;2072851;28;20054;-43
2022/10/26 05:00:13;;;;;;;12.80;7.50;;;;;;;;;;2073115;28;20513;-43
2022/10/26 05:01:15;;;;;;;11.90;7.25;;;;;;;;;;2073406;28;20053;-46
2022/10/26 05:02:16;;;;;;;18.63;7.95;;;;;;;;;;2073318;28;20165;-45
2022/10/26 05:03:17;;;;;;;13.75;7.82;;;;;;;;;;2073211;28;20400;-45
2022/10/26 05:04:18;;;;;;;13.85;7.57;;;;;;;;;;2073111;28;20054;-45
2022/10/26 05:05:19;;;;;;;13.43;7.37;;;;;;;;;;2073151;28;20085;-45
2022/10/26 05:06:20;;;;;;;15.82;7.97;;;;;;;;;;2073036;28;20419;-46
2022/10/26 05:07:22;;;;;;;13.48;8.18;;;;;;;;;;2073295;28;20046;-46
2022/10/26 05:08:23;;;;;;;;;;;;;;;;;;2073721;28;20524;-44
2022/10/26 05:09:24;;;;;;;11.95;6.78;;;;;;;;;;2073039;28;20293;-43
2022/10/26 05:10:26;;;;;;;13.52;7.43;;;;;;;;;;2073800;28;20054;-47
2022/10/26 05:11:27;;;;;;;14.48;7.45;;;;;;;;;;2073143;28;20049;-46
2022/10/26 05:12:28;;;;;;;13.53;7.87;;;;;;;;;;2073189;28;20050;-45
2022/10/26 05:13:29;;;;;;;15.25;8.73;;;;;;;;;;2073058;28;20046;-46
2022/10/26 05:14:30;;;;;;;14.37;7.93;;;;;;;;;;2073540;28;20145;-45
2022/10/26 05:15:31;;;;;;;14.30;8.15;;;;;;;;;;2073059;28;20049;-46
2022/10/26 05:16:32;;;;;;;15.07;7.43;;;;;;;;;;2072890;28;20469;-47
2022/10/26 05:17:33;;;;;;;15.32;8.52;;;;;;;;;;2072957;28;20626;-46
2022/10/26 05:18:34;;;;;;;13.27;8.02;;;;;;;;;;2073395;28;20138;-46
2022/10/26 05:19:35;;;;;;;13.10;7.68;;;;;;;;;;2072952;28;20442;-46
2022/10/26 05:20:37;;;;;;;13.88;8.50;;;;;;;;;;2073152;28;20050;-45
2022/10/26 05:21:37;;;;;;;16.30;7.97;;;;;;;;;;2073188;28;20049;-45
2022/10/26 05:22:40;;;;;;;15.87;8.03;;;;;;;;;;2073172;28;20381;-43
2022/10/26 05:23:40;;;;;;;16.02;8.95;;;;;;;;;;2072974;28;20129;-43
2022/10/26 05:24:42;;;;;;;18.53;8.37;;;;;;;;;;2072974;28;20414;-43
2022/10/26 05:25:43;;;;;;;14.00;7.60;;;;;;;;;;2073328;28;20046;-43
2022/10/26 05:26:44;;;;;;;13.65;7.32;;;;;;;;;;2073047;28;20050;-43
2022/10/26 05:27:45;;;;;;;19.05;8.27;;;;;;;;;;2073098;28;20086;-43
2022/10/26 05:28:47;;;;;;;15.95;7.88;;;;;;;;;;2072588;28;20487;-45
2022/10/26 05:29:49;;;;;;;16.52;8.43;;;;;;;;;;2072507;28;20046;-43
2022/10/26 05:30:49;;;;;;;19.00;8.80;;;;;;;;;;2073138;28;20050;-45
2022/10/26 05:31:51;;;;;;;17.80;8.67;;;;;;;;;;2073213;28;20107;-45
2022/10/26 05:32:52;;;;;;;13.77;7.82;;;;;;;;;;2072966;28;20053;-43
2022/10/26 05:33:53;;;;;;;16.02;7.20;;;;;;;;;;2074155;28;20049;-43
2022/10/26 05:34:54;;;;;;;15.82;7.95;;;;;;;;;;2073053;28;20132;-45
2022/10/26 05:35:56;;;;;;;15.47;8.00;;;;;;;;;;2072937;28;20141;-44
2022/10/26 05:36:57;;;;;;;14.43;7.53;;;;;;;;;;2072850;28;20342;-44
2022/10/26 05:37:59;;;;;;;16.52;7.88;;;;;;;;;;2073098;28;20046;-45
2022/10/26 05:39:00;;;;;;;18.38;8.32;;;;;;;;;;2072714;28;20072;-44
2022/10/26 05:40:01;;;;;;;13.13;8.02;;;;;;;;;;2072972;28;20069;-44
2022/10/26 05:41:02;;;;;;;14.70;7.70;;;;;;;;;;2073265;28;20560;-46
2022/10/26 05:42:03;;;;;;;16.00;8.20;;;;;;;;;;2072847;28;20457;-45
2022/10/26 05:43:04;;;;;;;17.45;8.38;;;;;;;;;;2073013;28;20069;-46
2022/10/26 05:44:05;;;;;;;13.10;7.22;;;;;;;;;;2072519;28;20058;-44
2022/10/26 05:45:07;;;;;;;14.67;7.67;;;;;;;;;;2073066;28;20052;-43
2022/10/26 05:46:08;;;;;;;16.08;7.25;;;;;;;;;;2073337;28;20049;-45
2022/10/26 05:47:09;;;;;;;14.90;7.97;;;;;;;;;;2072451;28;20072;-45
2022/10/26 05:48:10;;;;;;;18.23;8.07;;;;;;;;;;2073084;28;20054;-43
2022/10/26 05:49:11;;;;;;;16.13;8.23;;;;;;;;;;2072773;28;20140;-44
2022/10/26 05:50:12;;;;;;;17.75;8.30;;;;;;;;;;2072852;28;20290;-44
2022/10/26 05:51:13;;;;;;;15.40;8.07;;;;;;;;;;2072776;28;20088;-46
2022/10/26 05:52:17;;;;;;;18.63;8.40;;;;;;;;;;2072931;28;20350;-46
2022/10/26 05:53:19;;;;;;;17.17;8.50;;;;;;;;;;2072854;28;20054;-44
2022/10/26 05:54:19;;;;;;;;;;;;;;;;;;2073058;28;20088;-45
2022/10/26 05:55:21;;;;;;;13.23;7.88;;;;;;;;;;2073292;28;20381;-44
2022/10/26 05:56:31;;;;;;;15.57;7.60;;;;;;;;;;2072990;28;20136;-44
2022/10/26 05:57:33;;;;;;;15.02;8.80;;;;;;;;;;2073330;28;20088;-46
2022/10/26 05:58:34;;;;;;;14.73;7.57;;;;;;;;;;2073151;28;20095;-46
2022/10/26 05:59:35;;;;;;;15.85;8.50;;;;;;;;;;2073248;28;20050;-43
2022/10/26 06:00:40;;;;;;;14.68;8.48;;;;;;;;;;2072924;28;20395;-44
2022/10/26 06:01:48;;;;;;;16.55;8.73;;;;;;;;;;2072865;28;20045;-45
2022/10/26 06:02:56;;;;;;;16.42;7.75;;;;;;;;;;2072985;28;20057;-44
2022/10/26 06:04:03;;;;;;;15.38;7.82;;;;;;;;;;2073555;28;20042;-46
2022/10/26 06:05:05;;;;;;;23.50;9.43;;;;;;;;;;2072762;28;20057;-46
2022/10/26 06:06:06;;;;;;;17.42;9.38;;;;;;;;;;2072968;28;20058;-45
2022/10/26 06:07:07;;;;;;;;;;;;;;;;;;2073327;28;20435;-44
2022/10/26 06:08:09;;;;;;;17.13;7.75;;;;;;;;;;2073013;28;19932;-44